Island Explorer 4 — WDH2774 — position and weather

sailwx.info

Track history (hours):
 
Tides and Currents Weather Stations Pressure Air Temp Water Temp Dewpoint Dewpoint Depression Visibility Wind Speed Wind Dir Waves Ship Positions

Island Explorer 4

Owner: Island Adventures, Inc., Commercial Ave., WA. More information available from US FCC via Universal Licensing System and Coast Guard Vessel Documentation Center.

Last reported at 2017-Sep-24 22:50 UTC. Time now 2017-Oct-17 22:26 UTC.
Position N 48°25' W 122°53'.
Warning: this ship's position is 22 days out of date.

Length 29 m.

Type: Passenger vessel. MMSI: 338576000.

Date/timePositionNaut miles runAvg speedWind from/ knotsBaromVisibWave heightAir tempDewpointWater temp
2017-Sep-24 22:50N 48°25' W 122°53'3 9.7
2017-Sep-24 22:30N 48°25' W 122°58'714.3
2017-Sep-24 22:01N 48°29' W 123°07'815.3
2017-Sep-24 21:31N 48°35' W 123°13'1 2.7
2017-Sep-24 21:00N 48°37' W 123°14'712.9
2017-Sep-24 20:29N 48°36' W 123°04'4 8.8
2017-Sep-24 20:00N 48°32' W 123°01'0 0.0
2017-Sep-24 19:30N 48°32' W 123°01'0 0.0
2017-Sep-24 19:00N 48°32' W 123°01'1 2.4
2017-Sep-24 18:30N 48°32' W 122°59'611.5
2017-Sep-24 18:00N 48°27' W 122°57'4 7.3
2017-Sep-24 17:30N 48°24' W 122°53'1 0.1
2017-Sep-23 22:25N 48°24' W 122°54'3 6.5
2017-Sep-23 22:00N 48°24' W 122°58'3 6.0
2017-Sep-23 21:30N 48°27' W 122°57'4 7.7
2017-Sep-23 21:00N 48°31' W 122°55'0 0.1
2017-Sep-23 20:30N 48°31' W 122°55'0 0.0
2017-Sep-23 20:00N 48°31' W 122°55'  
2017-Sep-18 22:02N 48°28' W 122°57'0 2.6
2017-Sep-18 22:00N 48°28' W 122°57'1 2.0
2017-Sep-18 21:28N 48°29' W 122°57'912.4
2017-Sep-18 20:42N 48°36' W 122°48'611.8
2017-Sep-18 20:12N 48°41' W 122°45'6 4.1
2017-Sep-18 18:38N 48°36' W 122°50'213.7
2017-Sep-18 18:30N 48°35' W 122°52'613.0
2017-Sep-18 18:00N 48°29' W 122°57'5 0.1
2017-Sep-16 22:37N 48°25' W 122°53'214.4
2017-Sep-16 22:29N 48°26' W 122°55'612.8
2017-Sep-16 22:00N 48°32' W 122°58'0 0.7
2017-Sep-16 21:30N 48°32' W 122°58'712.6
2017-Sep-16 20:58N 48°37' W 123°05'714.3
2017-Sep-16 20:29N 48°40' W 123°14'2 3.2
2017-Sep-16 19:49N 48°41' W 123°17'1 2.8
2017-Sep-16 19:30N 48°41' W 123°16'610.4
2017-Sep-16 18:56N 48°39' W 123°07'613.5
2017-Sep-16 18:30N 48°35' W 123°02'714.5
2017-Sep-16 18:00N 48°28' W 122°57'611.2
2017-Sep-16 17:30N 48°25' W 122°51'  
Track history (hours):
 
Tides and Currents Weather Stations Pressure Air Temp Water Temp Dewpoint Dewpoint Depression Visibility Wind Speed Wind Dir Waves Ship Positions

Island Explorer 4

Owner: Island Adventures, Inc., Commercial Ave., WA. More information available from US FCC via Universal Licensing System and Coast Guard Vessel Documentation Center.

Last reported at 2017-Sep-24 22:50 UTC. Time now 2017-Oct-17 22:26 UTC.
Position N 48°25' W 122°53'.
Warning: this ship's position is 22 days out of date.

Length 29 m.

Type: Passenger vessel. MMSI: 338576000.

Date/timePositionNaut miles runAvg speedWind from/ knotsBaromVisibWave heightAir tempDewpointWater temp
2017-Sep-24 22:50N 48°25' W 122°53'3 9.7
2017-Sep-24 22:30N 48°25' W 122°58'714.3
2017-Sep-24 22:01N 48°29' W 123°07'815.3
2017-Sep-24 21:31N 48°35' W 123°13'1 2.7
2017-Sep-24 21:00N 48°37' W 123°14'712.9
2017-Sep-24 20:29N 48°36' W 123°04'4 8.8
2017-Sep-24 20:00N 48°32' W 123°01'0 0.0
2017-Sep-24 19:30N 48°32' W 123°01'0 0.0
2017-Sep-24 19:00N 48°32' W 123°01'1 2.4
2017-Sep-24 18:30N 48°32' W 122°59'611.5
2017-Sep-24 18:00N 48°27' W 122°57'4 7.3
2017-Sep-24 17:30N 48°24' W 122°53'1 0.1
2017-Sep-23 22:25N 48°24' W 122°54'3 6.5
2017-Sep-23 22:00N 48°24' W 122°58'3 6.0
2017-Sep-23 21:30N 48°27' W 122°57'4 7.7
2017-Sep-23 21:00N 48°31' W 122°55'0 0.1
2017-Sep-23 20:30N 48°31' W 122°55'0 0.0
2017-Sep-23 20:00N 48°31' W 122°55'  
2017-Sep-18 22:02N 48°28' W 122°57'0 2.6
2017-Sep-18 22:00N 48°28' W 122°57'1 2.0
2017-Sep-18 21:28N 48°29' W 122°57'912.4
2017-Sep-18 20:42N 48°36' W 122°48'611.8
2017-Sep-18 20:12N 48°41' W 122°45'6 4.1
2017-Sep-18 18:38N 48°36' W 122°50'213.7
2017-Sep-18 18:30N 48°35' W 122°52'613.0
2017-Sep-18 18:00N 48°29' W 122°57'5 0.1
2017-Sep-16 22:37N 48°25' W 122°53'214.4
2017-Sep-16 22:29N 48°26' W 122°55'612.8
2017-Sep-16 22:00N 48°32' W 122°58'0 0.7
2017-Sep-16 21:30N 48°32' W 122°58'712.6
2017-Sep-16 20:58N 48°37' W 123°05'714.3
2017-Sep-16 20:29N 48°40' W 123°14'2 3.2
2017-Sep-16 19:49N 48°41' W 123°17'1 2.8
2017-Sep-16 19:30N 48°41' W 123°16'610.4
2017-Sep-16 18:56N 48°39' W 123°07'613.5
2017-Sep-16 18:30N 48°35' W 123°02'714.5
2017-Sep-16 18:00N 48°28' W 122°57'611.2
2017-Sep-16 17:30N 48°25' W 122°51'  

Dump ship's entire track history